sensor_id;sensor_type;location;lat;lon;timestamp;P1;durP1;ratioP1;P2;durP2;ratioP2
2396;SDS011;1209;48.410;9.054;2023-07-20T00:01:22;2.80;;;2.33;;
2396;SDS011;1209;48.410;9.054;2023-07-20T00:03:47;2.20;;;2.00;;
2396;SDS011;1209;48.410;9.054;2023-07-20T00:06:19;4.60;;;2.23;;
2396;SDS011;1209;48.410;9.054;2023-07-20T00:08:52;4.53;;;2.00;;
2396;SDS011;1209;48.410;9.054;2023-07-20T00:11:25;2.63;;;2.07;;
2396;SDS011;1209;48.410;9.054;2023-07-20T00:13:51;1.97;;;1.80;;
2396;SDS011;1209;48.410;9.054;2023-07-20T00:16:17;1.73;;;1.63;;
2396;SDS011;1209;48.410;9.054;2023-07-20T00:18:42;2.20;;;1.97;;
2396;SDS011;1209;48.410;9.054;2023-07-20T00:21:08;2.93;;;1.90;;
2396;SDS011;1209;48.410;9.054;2023-07-20T00:23:34;2.23;;;2.03;;
2396;SDS011;1209;48.410;9.054;2023-07-20T00:25:59;7.50;;;2.90;;
2396;SDS011;1209;48.410;9.054;2023-07-20T00:28:24;2.70;;;2.27;;
2396;SDS011;1209;48.410;9.054;2023-07-20T00:30:49;2.17;;;1.97;;
2396;SDS011;1209;48.410;9.054;2023-07-20T00:33:16;2.60;;;2.40;;
2396;SDS011;1209;48.410;9.054;2023-07-20T00:35:42;3.23;;;2.27;;
2396;SDS011;1209;48.410;9.054;2023-07-20T00:38:07;3.00;;;2.00;;
2396;SDS011;1209;48.410;9.054;2023-07-20T00:40:36;2.87;;;2.67;;
2396;SDS011;1209;48.410;9.054;2023-07-20T00:43:02;2.30;;;2.10;;
2396;SDS011;1209;48.410;9.054;2023-07-20T00:45:28;2.20;;;2.00;;
2396;SDS011;1209;48.410;9.054;2023-07-20T00:47:54;3.33;;;2.40;;
2396;SDS011;1209;48.410;9.054;2023-07-20T00:50:19;3.00;;;1.90;;
2396;SDS011;1209;48.410;9.054;2023-07-20T00:52:45;2.57;;;2.13;;
2396;SDS011;1209;48.410;9.054;2023-07-20T00:55:10;3.13;;;2.07;;
2396;SDS011;1209;48.410;9.054;2023-07-20T00:57:36;2.43;;;1.93;;
2396;SDS011;1209;48.410;9.054;2023-07-20T01:00:02;3.60;;;2.67;;
2396;SDS011;1209;48.410;9.054;2023-07-20T01:02:28;6.03;;;2.60;;
2396;SDS011;1209;48.410;9.054;2023-07-20T01:04:53;2.80;;;2.30;;
2396;SDS011;1209;48.410;9.054;2023-07-20T01:10:27;4.73;;;2.33;;
2396;SDS011;1209;48.410;9.054;2023-07-20T01:12:58;6.10;;;2.07;;
2396;SDS011;1209;48.410;9.054;2023-07-20T01:15:26;4.33;;;2.30;;
2396;SDS011;1209;48.410;9.054;2023-07-20T01:17:51;3.23;;;2.10;;
2396;SDS011;1209;48.410;9.054;2023-07-20T01:20:18;4.87;;;2.60;;
2396;SDS011;1209;48.410;9.054;2023-07-20T01:30:43;3.03;;;2.43;;
2396;SDS011;1209;48.410;9.054;2023-07-20T01:33:15;2.87;;;2.30;;
2396;SDS011;1209;48.410;9.054;2023-07-20T01:35:42;10.30;;;1.83;;
2396;SDS011;1209;48.410;9.054;2023-07-20T01:38:09;3.43;;;2.50;;
2396;SDS011;1209;48.410;9.054;2023-07-20T01:40:36;3.60;;;2.50;;
2396;SDS011;1209;48.410;9.054;2023-07-20T01:43:02;3.50;;;2.27;;
2396;SDS011;1209;48.410;9.054;2023-07-20T01:45:28;3.70;;;2.47;;
2396;SDS011;1209;48.410;9.054;2023-07-20T01:47:53;3.17;;;2.33;;
2396;SDS011;1209;48.410;9.054;2023-07-20T01:50:18;3.10;;;2.30;;
2396;SDS011;1209;48.410;9.054;2023-07-20T01:52:44;9.83;;;2.47;;
2396;SDS011;1209;48.410;9.054;2023-07-20T01:55:09;3.83;;;2.87;;
2396;SDS011;1209;48.410;9.054;2023-07-20T01:57:34;5.80;;;2.53;;
2396;SDS011;1209;48.410;9.054;2023-07-20T02:00:00;2.97;;;2.67;;
2396;SDS011;1209;48.410;9.054;2023-07-20T02:02:26;3.77;;;2.17;;
2396;SDS011;1209;48.410;9.054;2023-07-20T02:04:53;2.90;;;2.47;;
2396;SDS011;1209;48.410;9.054;2023-07-20T02:07:18;7.20;;;2.80;;
2396;SDS011;1209;48.410;9.054;2023-07-20T02:09:43;2.67;;;2.47;;
2396;SDS011;1209;48.410;9.054;2023-07-20T02:12:09;4.40;;;2.90;;
2396;SDS011;1209;48.410;9.054;2023-07-20T02:14:34;3.47;;;2.47;;
2396;SDS011;1209;48.410;9.054;2023-07-20T02:16:59;4.67;;;2.80;;
2396;SDS011;1209;48.410;9.054;2023-07-20T02:19:26;4.30;;;3.20;;
2396;SDS011;1209;48.410;9.054;2023-07-20T02:21:52;2.47;;;2.23;;
2396;SDS011;1209;48.410;9.054;2023-07-20T02:24:17;3.73;;;2.57;;
2396;SDS011;1209;48.410;9.054;2023-07-20T02:26:43;2.50;;;2.30;;
2396;SDS011;1209;48.410;9.054;2023-07-20T02:29:09;2.70;;;2.30;;
2396;SDS011;1209;48.410;9.054;2023-07-20T02:31:36;3.80;;;2.30;;
2396;SDS011;1209;48.410;9.054;2023-07-20T02:34:07;2.67;;;2.40;;
2396;SDS011;1209;48.410;9.054;2023-07-20T02:36:34;5.20;;;2.60;;
2396;SDS011;1209;48.410;9.054;2023-07-20T02:38:59;3.87;;;2.53;;
2396;SDS011;1209;48.410;9.054;2023-07-20T02:41:26;2.90;;;2.40;;
2396;SDS011;1209;48.410;9.054;2023-07-20T02:43:52;2.97;;;2.20;;
2396;SDS011;1209;48.410;9.054;2023-07-20T02:46:17;3.17;;;2.80;;
2396;SDS011;1209;48.410;9.054;2023-07-20T02:48:42;2.60;;;2.40;;
2396;SDS011;1209;48.410;9.054;2023-07-20T02:51:08;2.90;;;2.50;;
2396;SDS011;1209;48.410;9.054;2023-07-20T02:53:34;5.80;;;3.00;;
2396;SDS011;1209;48.410;9.054;2023-07-20T02:55:59;2.63;;;2.33;;
2396;SDS011;1209;48.410;9.054;2023-07-20T02:58:25;6.33;;;2.93;;
2396;SDS011;1209;48.410;9.054;2023-07-20T03:00:50;2.80;;;2.60;;
2396;SDS011;1209;48.410;9.054;2023-07-20T03:03:15;3.20;;;2.77;;
2396;SDS011;1209;48.410;9.054;2023-07-20T03:05:41;2.70;;;2.50;;
2396;SDS011;1209;48.410;9.054;2023-07-20T03:08:06;6.57;;;2.63;;
2396;SDS011;1209;48.410;9.054;2023-07-20T03:10:32;5.80;;;2.87;;
2396;SDS011;1209;48.410;9.054;2023-07-20T03:12:57;3.57;;;2.67;;
2396;SDS011;1209;48.410;9.054;2023-07-20T03:15:23;3.80;;;2.70;;
2396;SDS011;1209;48.410;9.054;2023-07-20T03:17:48;6.47;;;2.90;;
2396;SDS011;1209;48.410;9.054;2023-07-20T03:20:13;3.93;;;2.47;;
2396;SDS011;1209;48.410;9.054;2023-07-20T03:22:39;3.10;;;2.60;;
2396;SDS011;1209;48.410;9.054;2023-07-20T03:25:04;2.83;;;2.63;;
2396;SDS011;1209;48.410;9.054;2023-07-20T03:27:30;3.10;;;2.80;;
2396;SDS011;1209;48.410;9.054;2023-07-20T03:29:55;3.37;;;2.70;;
2396;SDS011;1209;48.410;9.054;2023-07-20T03:32:20;3.20;;;2.90;;
2396;SDS011;1209;48.410;9.054;2023-07-20T03:34:46;3.87;;;2.60;;
2396;SDS011;1209;48.410;9.054;2023-07-20T03:37:12;3.80;;;2.70;;
2396;SDS011;1209;48.410;9.054;2023-07-20T03:39:38;2.67;;;2.47;;
2396;SDS011;1209;48.410;9.054;2023-07-20T03:42:03;4.20;;;2.77;;
2396;SDS011;1209;48.410;9.054;2023-07-20T03:44:29;3.90;;;2.80;;
2396;SDS011;1209;48.410;9.054;2023-07-20T03:46:55;4.20;;;2.27;;
2396;SDS011;1209;48.410;9.054;2023-07-20T03:49:20;2.70;;;2.50;;
2396;SDS011;1209;48.410;9.054;2023-07-20T03:51:46;3.53;;;2.40;;
2396;SDS011;1209;48.410;9.054;2023-07-20T03:54:11;8.03;;;3.10;;
2396;SDS011;1209;48.410;9.054;2023-07-20T03:56:36;5.53;;;2.33;;
2396;SDS011;1209;48.410;9.054;2023-07-20T03:59:02;6.03;;;2.60;;
2396;SDS011;1209;48.410;9.054;2023-07-20T04:01:27;5.63;;;2.90;;
2396;SDS011;1209;48.410;9.054;2023-07-20T04:03:53;4.03;;;2.23;;
2396;SDS011;1209;48.410;9.054;2023-07-20T04:06:18;5.60;;;2.70;;
2396;SDS011;1209;48.410;9.054;2023-07-20T04:08:44;2.50;;;2.30;;
2396;SDS011;1209;48.410;9.054;2023-07-20T04:11:09;3.13;;;2.77;;
2396;SDS011;1209;48.410;9.054;2023-07-20T04:13:35;3.50;;;3.20;;
2396;SDS011;1209;48.410;9.054;2023-07-20T04:16:00;2.97;;;2.63;;
2396;SDS011;1209;48.410;9.054;2023-07-20T04:18:27;4.00;;;2.80;;
2396;SDS011;1209;48.410;9.054;2023-07-20T04:20:52;3.30;;;3.00;;
2396;SDS011;1209;48.410;9.054;2023-07-20T04:23:18;3.90;;;2.30;;
2396;SDS011;1209;48.410;9.054;2023-07-20T04:25:43;3.77;;;2.80;;
2396;SDS011;1209;48.410;9.054;2023-07-20T04:28:09;3.83;;;2.60;;
2396;SDS011;1209;48.410;9.054;2023-07-20T04:30:35;3.57;;;2.90;;
2396;SDS011;1209;48.410;9.054;2023-07-20T04:33:01;5.93;;;3.20;;
2396;SDS011;1209;48.410;9.054;2023-07-20T04:38:13;5.20;;;2.90;;
2396;SDS011;1209;48.410;9.054;2023-07-20T04:40:40;3.43;;;3.00;;
2396;SDS011;1209;48.410;9.054;2023-07-20T04:43:06;4.93;;;2.70;;
2396;SDS011;1209;48.410;9.054;2023-07-20T04:45:31;7.83;;;3.47;;
2396;SDS011;1209;48.410;9.054;2023-07-20T04:47:57;4.07;;;3.17;;
2396;SDS011;1209;48.410;9.054;2023-07-20T04:50:22;4.40;;;3.23;;
2396;SDS011;1209;48.410;9.054;2023-07-20T04:52:50;3.90;;;3.40;;
2396;SDS011;1209;48.410;9.054;2023-07-20T04:55:15;14.57;;;13.10;;
2396;SDS011;1209;48.410;9.054;2023-07-20T04:57:41;4.70;;;4.30;;
2396;SDS011;1209;48.410;9.054;2023-07-20T05:00:06;5.20;;;2.90;;
2396;SDS011;1209;48.410;9.054;2023-07-20T05:02:32;18.40;;;16.50;;
2396;SDS011;1209;48.410;9.054;2023-07-20T05:04:57;16.90;;;15.50;;
2396;SDS011;1209;48.410;9.054;2023-07-20T05:07:22;11.53;;;9.63;;
2396;SDS011;1209;48.410;9.054;2023-07-20T05:09:48;4.60;;;3.67;;
2396;SDS011;1209;48.410;9.054;2023-07-20T05:12:13;6.40;;;5.80;;
2396;SDS011;1209;48.410;9.054;2023-07-20T05:14:38;11.07;;;8.80;;
2396;SDS011;1209;48.410;9.054;2023-07-20T05:17:04;14.70;;;12.33;;
2396;SDS011;1209;48.410;9.054;2023-07-20T05:19:29;8.00;;;7.30;;
2396;SDS011;1209;48.410;9.054;2023-07-20T05:21:55;8.73;;;7.50;;
2396;SDS011;1209;48.410;9.054;2023-07-20T05:24:20;12.33;;;9.07;;
2396;SDS011;1209;48.410;9.054;2023-07-20T05:26:46;14.43;;;12.97;;
2396;SDS011;1209;48.410;9.054;2023-07-20T05:29:11;22.00;;;19.90;;
2396;SDS011;1209;48.410;9.054;2023-07-20T05:31:36;10.07;;;4.90;;
2396;SDS011;1209;48.410;9.054;2023-07-20T05:34:01;3.20;;;2.93;;
2396;SDS011;1209;48.410;9.054;2023-07-20T05:36:27;6.20;;;5.60;;
2396;SDS011;1209;48.410;9.054;2023-07-20T05:38:52;7.30;;;6.47;;
2396;SDS011;1209;48.410;9.054;2023-07-20T05:41:18;7.07;;;6.40;;
2396;SDS011;1209;48.410;9.054;2023-07-20T05:43:43;3.43;;;3.13;;
2396;SDS011;1209;48.410;9.054;2023-07-20T05:46:08;5.83;;;2.70;;
2396;SDS011;1209;48.410;9.054;2023-07-20T05:48:34;2.60;;;2.40;;
2396;SDS011;1209;48.410;9.054;2023-07-20T05:51:00;2.60;;;2.40;;
2396;SDS011;1209;48.410;9.054;2023-07-20T05:53:25;2.80;;;2.57;;
2396;SDS011;1209;48.410;9.054;2023-07-20T05:55:54;3.53;;;2.60;;
2396;SDS011;1209;48.410;9.054;2023-07-20T05:58:19;3.93;;;2.57;;
2396;SDS011;1209;48.410;9.054;2023-07-20T06:00:48;5.93;;;2.70;;
2396;SDS011;1209;48.410;9.054;2023-07-20T06:03:14;4.10;;;2.73;;
2396;SDS011;1209;48.410;9.054;2023-07-20T06:05:41;3.33;;;2.67;;
2396;SDS011;1209;48.410;9.054;2023-07-20T06:08:07;5.13;;;2.30;;
2396;SDS011;1209;48.410;9.054;2023-07-20T06:10:32;3.43;;;2.20;;
2396;SDS011;1209;48.410;9.054;2023-07-20T06:12:57;3.83;;;2.23;;
2396;SDS011;1209;48.410;9.054;2023-07-20T06:15:26;3.87;;;2.80;;
2396;SDS011;1209;48.410;9.054;2023-07-20T06:17:54;3.37;;;2.60;;
2396;SDS011;1209;48.410;9.054;2023-07-20T06:20:21;3.10;;;2.30;;
2396;SDS011;1209;48.410;9.054;2023-07-20T06:22:47;2.67;;;2.47;;
2396;SDS011;1209;48.410;9.054;2023-07-20T06:25:12;4.60;;;2.20;;
2396;SDS011;1209;48.410;9.054;2023-07-20T06:27:38;3.50;;;2.40;;
2396;SDS011;1209;48.410;9.054;2023-07-20T06:30:03;2.57;;;2.30;;
2396;SDS011;1209;48.410;9.054;2023-07-20T06:32:29;2.77;;;2.30;;
2396;SDS011;1209;48.410;9.054;2023-07-20T06:34:54;2.30;;;2.10;;
2396;SDS011;1209;48.410;9.054;2023-07-20T06:37:19;3.00;;;2.67;;
2396;SDS011;1209;48.410;9.054;2023-07-20T06:39:45;5.00;;;2.70;;
2396;SDS011;1209;48.410;9.054;2023-07-20T06:42:11;2.80;;;2.37;;
2396;SDS011;1209;48.410;9.054;2023-07-20T06:44:36;3.87;;;2.63;;
2396;SDS011;1209;48.410;9.054;2023-07-20T06:47:02;2.57;;;2.37;;
2396;SDS011;1209;48.410;9.054;2023-07-20T06:49:27;3.80;;;2.63;;
2396;SDS011;1209;48.410;9.054;2023-07-20T06:51:53;2.53;;;2.33;;
2396;SDS011;1209;48.410;9.054;2023-07-20T06:54:18;2.30;;;2.13;;
2396;SDS011;1209;48.410;9.054;2023-07-20T06:56:43;3.10;;;2.57;;
2396;SDS011;1209;48.410;9.054;2023-07-20T06:59:09;3.20;;;2.90;;
2396;SDS011;1209;48.410;9.054;2023-07-20T07:01:34;2.77;;;2.17;;
2396;SDS011;1209;48.410;9.054;2023-07-20T07:03:59;9.40;;;3.43;;
2396;SDS011;1209;48.410;9.054;2023-07-20T07:06:25;5.40;;;3.00;;
2396;SDS011;1209;48.410;9.054;2023-07-20T07:08:50;3.83;;;2.70;;
2396;SDS011;1209;48.410;9.054;2023-07-20T07:11:15;4.10;;;3.10;;
2396;SDS011;1209;48.410;9.054;2023-07-20T07:13:41;2.40;;;2.20;;
2396;SDS011;1209;48.410;9.054;2023-07-20T07:16:06;7.13;;;2.80;;
2396;SDS011;1209;48.410;9.054;2023-07-20T07:18:31;2.53;;;2.30;;
2396;SDS011;1209;48.410;9.054;2023-07-20T07:20:57;8.83;;;2.90;;
2396;SDS011;1209;48.410;9.054;2023-07-20T07:23:22;4.80;;;2.73;;
2396;SDS011;1209;48.410;9.054;2023-07-20T07:25:47;3.90;;;2.53;;
2396;SDS011;1209;48.410;9.054;2023-07-20T07:28:12;10.03;;;2.80;;
2396;SDS011;1209;48.410;9.054;2023-07-20T07:30:38;3.60;;;2.60;;
2396;SDS011;1209;48.410;9.054;2023-07-20T07:33:03;3.70;;;2.60;;
2396;SDS011;1209;48.410;9.054;2023-07-20T07:35:29;4.43;;;2.20;;
2396;SDS011;1209;48.410;9.054;2023-07-20T07:37:54;7.80;;;3.40;;
2396;SDS011;1209;48.410;9.054;2023-07-20T07:40:20;4.40;;;2.20;;
2396;SDS011;1209;48.410;9.054;2023-07-20T07:42:45;3.40;;;2.67;;
2396;SDS011;1209;48.410;9.054;2023-07-20T07:45:11;3.20;;;2.90;;
2396;SDS011;1209;48.410;9.054;2023-07-20T07:47:38;4.77;;;4.30;;
2396;SDS011;1209;48.410;9.054;2023-07-20T07:50:03;4.07;;;2.73;;
2396;SDS011;1209;48.410;9.054;2023-07-20T07:52:29;3.97;;;3.03;;
2396;SDS011;1209;48.410;9.054;2023-07-20T07:54:54;3.20;;;2.60;;
2396;SDS011;1209;48.410;9.054;2023-07-20T07:57:20;4.10;;;2.70;;
2396;SDS011;1209;48.410;9.054;2023-07-20T07:59:45;3.40;;;2.50;;
2396;SDS011;1209;48.410;9.054;2023-07-20T08:02:11;4.90;;;2.70;;
2396;SDS011;1209;48.410;9.054;2023-07-20T08:04:36;3.20;;;2.27;;
2396;SDS011;1209;48.410;9.054;2023-07-20T08:07:04;6.87;;;2.80;;
2396;SDS011;1209;48.410;9.054;2023-07-20T08:09:30;2.43;;;2.10;;
2396;SDS011;1209;48.410;9.054;2023-07-20T08:11:55;3.13;;;2.43;;
2396;SDS011;1209;48.410;9.054;2023-07-20T08:14:20;3.53;;;2.53;;
2396;SDS011;1209;48.410;9.054;2023-07-20T08:16:45;2.67;;;2.33;;
2396;SDS011;1209;48.410;9.054;2023-07-20T08:19:12;2.50;;;2.10;;
2396;SDS011;1209;48.410;9.054;2023-07-20T08:21:37;3.10;;;2.63;;
2396;SDS011;1209;48.410;9.054;2023-07-20T08:24:03;2.33;;;2.13;;
2396;SDS011;1209;48.410;9.054;2023-07-20T08:26:28;3.13;;;2.67;;
2396;SDS011;1209;48.410;9.054;2023-07-20T08:28:54;6.80;;;2.93;;
2396;SDS011;1209;48.410;9.054;2023-07-20T08:31:19;3.77;;;2.63;;
2396;SDS011;1209;48.410;9.054;2023-07-20T08:33:45;3.00;;;2.70;;
2396;SDS011;1209;48.410;9.054;2023-07-20T08:36:10;4.53;;;2.37;;
2396;SDS011;1209;48.410;9.054;2023-07-20T08:38:36;2.30;;;2.10;;
2396;SDS011;1209;48.410;9.054;2023-07-20T08:41:01;2.87;;;2.27;;
2396;SDS011;1209;48.410;9.054;2023-07-20T08:43:27;5.80;;;2.40;;
2396;SDS011;1209;48.410;9.054;2023-07-20T08:45:55;4.77;;;3.30;;
2396;SDS011;1209;48.410;9.054;2023-07-20T08:48:22;2.60;;;2.40;;
2396;SDS011;1209;48.410;9.054;2023-07-20T08:50:52;2.43;;;2.07;;
2396;SDS011;1209;48.410;9.054;2023-07-20T08:53:21;2.53;;;2.33;;
2396;SDS011;1209;48.410;9.054;2023-07-20T08:55:46;3.47;;;2.03;;
2396;SDS011;1209;48.410;9.054;2023-07-20T08:58:15;2.90;;;2.60;;
2396;SDS011;1209;48.410;9.054;2023-07-20T09:00:42;4.47;;;2.40;;
2396;SDS011;1209;48.410;9.054;2023-07-20T09:03:08;4.67;;;2.50;;
2396;SDS011;1209;48.410;9.054;2023-07-20T09:05:34;2.93;;;2.13;;
2396;SDS011;1209;48.410;9.054;2023-07-20T09:08:00;2.90;;;2.60;;
2396;SDS011;1209;48.410;9.054;2023-07-20T09:10:28;3.80;;;2.40;;
2396;SDS011;1209;48.410;9.054;2023-07-20T09:12:54;2.60;;;2.40;;
2396;SDS011;1209;48.410;9.054;2023-07-20T09:15:20;3.13;;;2.10;;
2396;SDS011;1209;48.410;9.054;2023-07-20T09:17:49;3.60;;;3.17;;
2396;SDS011;1209;48.410;9.054;2023-07-20T09:20:16;2.93;;;2.27;;
2396;SDS011;1209;48.410;9.054;2023-07-20T09:22:43;2.20;;;1.90;;
2396;SDS011;1209;48.410;9.054;2023-07-20T09:25:13;2.93;;;2.27;;
2396;SDS011;1209;48.410;9.054;2023-07-20T09:27:40;2.07;;;1.97;;
2396;SDS011;1209;48.410;9.054;2023-07-20T09:30:08;2.40;;;2.20;;
2396;SDS011;1209;48.410;9.054;2023-07-20T09:32:39;2.60;;;2.20;;
2396;SDS011;1209;48.410;9.054;2023-07-20T09:35:06;2.40;;;2.20;;
2396;SDS011;1209;48.410;9.054;2023-07-20T09:37:37;3.23;;;1.90;;
2396;SDS011;1209;48.410;9.054;2023-07-20T09:40:02;2.40;;;2.13;;
2396;SDS011;1209;48.410;9.054;2023-07-20T09:42:32;4.63;;;1.60;;
2396;SDS011;1209;48.410;9.054;2023-07-20T09:44:57;6.40;;;1.57;;
2396;SDS011;1209;48.410;9.054;2023-07-20T09:47:23;4.70;;;1.80;;
2396;SDS011;1209;48.410;9.054;2023-07-20T09:49:48;1.50;;;1.43;;
2396;SDS011;1209;48.410;9.054;2023-07-20T09:52:14;3.33;;;2.10;;
2396;SDS011;1209;48.410;9.054;2023-07-20T09:54:40;3.50;;;2.30;;
2396;SDS011;1209;48.410;9.054;2023-07-20T09:57:08;1.57;;;1.47;;
2396;SDS011;1209;48.410;9.054;2023-07-20T09:59:34;1.80;;;1.70;;
2396;SDS011;1209;48.410;9.054;2023-07-20T10:02:00;1.40;;;1.30;;
2396;SDS011;1209;48.410;9.054;2023-07-20T10:04:28;1.57;;;1.47;;
2396;SDS011;1209;48.410;9.054;2023-07-20T10:06:54;1.67;;;1.57;;
2396;SDS011;1209;48.410;9.054;2023-07-20T10:09:23;2.13;;;1.87;;
2396;SDS011;1209;48.410;9.054;2023-07-20T10:11:50;1.37;;;1.27;;
2396;SDS011;1209;48.410;9.054;2023-07-20T10:14:19;3.40;;;2.23;;
2396;SDS011;1209;48.410;9.054;2023-07-20T10:16:51;2.90;;;1.87;;
2396;SDS011;1209;48.410;9.054;2023-07-20T10:19:23;2.30;;;1.83;;
2396;SDS011;1209;48.410;9.054;2023-07-20T10:21:57;1.97;;;1.83;;
2396;SDS011;1209;48.410;9.054;2023-07-20T10:24:27;1.80;;;1.70;;
2396;SDS011;1209;48.410;9.054;2023-07-20T10:26:53;2.43;;;1.80;;
2396;SDS011;1209;48.410;9.054;2023-07-20T10:29:19;5.10;;;1.80;;
2396;SDS011;1209;48.410;9.054;2023-07-20T10:31:45;2.80;;;1.90;;
2396;SDS011;1209;48.410;9.054;2023-07-20T10:34:11;1.83;;;1.73;;
2396;SDS011;1209;48.410;9.054;2023-07-20T10:36:43;6.53;;;1.83;;
2396;SDS011;1209;48.410;9.054;2023-07-20T10:39:22;2.13;;;1.97;;
2396;SDS011;1209;48.410;9.054;2023-07-20T10:42:08;5.53;;;1.87;;
2396;SDS011;1209;48.410;9.054;2023-07-20T10:44:36;2.40;;;1.67;;
2396;SDS011;1209;48.410;9.054;2023-07-20T10:47:03;1.60;;;1.50;;
2396;SDS011;1209;48.410;9.054;2023-07-20T10:49:34;1.63;;;1.53;;
2396;SDS011;1209;48.410;9.054;2023-07-20T10:52:03;2.20;;;1.70;;
2396;SDS011;1209;48.410;9.054;2023-07-20T10:57:17;2.37;;;1.80;;
2396;SDS011;1209;48.410;9.054;2023-07-20T10:59:46;2.10;;;1.90;;
2396;SDS011;1209;48.410;9.054;2023-07-20T11:02:12;1.87;;;1.77;;
2396;SDS011;1209;48.410;9.054;2023-07-20T11:04:38;2.30;;;1.73;;
2396;SDS011;1209;48.410;9.054;2023-07-20T11:07:07;4.10;;;2.30;;
2396;SDS011;1209;48.410;9.054;2023-07-20T11:09:36;2.10;;;1.57;;
2396;SDS011;1209;48.410;9.054;2023-07-20T11:12:09;2.00;;;1.80;;
2396;SDS011;1209;48.410;9.054;2023-07-20T11:14:35;1.87;;;1.67;;
2396;SDS011;1209;48.410;9.054;2023-07-20T11:17:22;1.63;;;1.53;;
2396;SDS011;1209;48.410;9.054;2023-07-20T11:19:57;4.10;;;1.80;;
2396;SDS011;1209;48.410;9.054;2023-07-20T11:22:25;1.63;;;1.50;;
2396;SDS011;1209;48.410;9.054;2023-07-20T11:24:54;1.70;;;1.60;;
2396;SDS011;1209;48.410;9.054;2023-07-20T11:27:20;2.70;;;2.20;;
2396;SDS011;1209;48.410;9.054;2023-07-20T11:29:47;1.93;;;1.80;;
2396;SDS011;1209;48.410;9.054;2023-07-20T11:32:19;1.60;;;1.50;;
2396;SDS011;1209;48.410;9.054;2023-07-20T11:34:48;1.87;;;1.77;;
2396;SDS011;1209;48.410;9.054;2023-07-20T11:37:14;2.67;;;1.50;;
2396;SDS011;1209;48.410;9.054;2023-07-20T11:39:41;1.60;;;1.50;;
2396;SDS011;1209;48.410;9.054;2023-07-20T11:42:06;2.33;;;1.60;;
2396;SDS011;1209;48.410;9.054;2023-07-20T11:44:32;2.00;;;1.90;;
2396;SDS011;1209;48.410;9.054;2023-07-20T11:47:01;1.63;;;1.53;;
2396;SDS011;1209;48.410;9.054;2023-07-20T11:49:35;2.00;;;1.83;;
2396;SDS011;1209;48.410;9.054;2023-07-20T11:52:07;1.67;;;1.57;;
2396;SDS011;1209;48.410;9.054;2023-07-20T11:54:43;1.40;;;1.30;;
2396;SDS011;1209;48.410;9.054;2023-07-20T11:57:15;3.30;;;1.70;;
2396;SDS011;1209;48.410;9.054;2023-07-20T11:59:53;1.63;;;1.40;;
2396;SDS011;1209;48.410;9.054;2023-07-20T12:02:22;1.60;;;1.50;;
2396;SDS011;1209;48.410;9.054;2023-07-20T12:04:48;1.80;;;1.70;;
2396;SDS011;1209;48.410;9.054;2023-07-20T12:07:13;3.80;;;1.50;;
2396;SDS011;1209;48.410;9.054;2023-07-20T12:09:39;1.50;;;1.40;;
2396;SDS011;1209;48.410;9.054;2023-07-20T12:12:09;1.90;;;1.40;;
2396;SDS011;1209;48.410;9.054;2023-07-20T12:14:37;1.70;;;1.60;;
2396;SDS011;1209;48.410;9.054;2023-07-20T12:17:02;3.10;;;1.70;;
2396;SDS011;1209;48.410;9.054;2023-07-20T12:19:27;2.90;;;1.90;;
2396;SDS011;1209;48.410;9.054;2023-07-20T12:21:56;1.70;;;1.60;;
2396;SDS011;1209;48.410;9.054;2023-07-20T12:24:24;6.73;;;1.63;;
2396;SDS011;1209;48.410;9.054;2023-07-20T12:26:55;2.00;;;1.67;;
2396;SDS011;1209;48.410;9.054;2023-07-20T12:29:21;2.00;;;1.80;;
2396;SDS011;1209;48.410;9.054;2023-07-20T12:31:46;4.93;;;1.73;;
2396;SDS011;1209;48.410;9.054;2023-07-20T12:34:12;1.70;;;1.60;;
2396;SDS011;1209;48.410;9.054;2023-07-20T12:36:37;2.13;;;1.90;;
2396;SDS011;1209;48.410;9.054;2023-07-20T12:39:02;2.00;;;1.63;;
2396;SDS011;1209;48.410;9.054;2023-07-20T12:41:28;1.77;;;1.60;;
2396;SDS011;1209;48.410;9.054;2023-07-20T12:43:54;1.87;;;1.77;;
2396;SDS011;1209;48.410;9.054;2023-07-20T12:46:22;2.30;;;1.83;;
2396;SDS011;1209;48.410;9.054;2023-07-20T12:48:48;1.80;;;1.60;;
2396;SDS011;1209;48.410;9.054;2023-07-20T12:51:13;2.30;;;1.80;;
2396;SDS011;1209;48.410;9.054;2023-07-20T12:53:38;2.40;;;1.93;;
2396;SDS011;1209;48.410;9.054;2023-07-20T12:56:04;1.60;;;1.50;;
2396;SDS011;1209;48.410;9.054;2023-07-20T12:58:30;1.90;;;1.80;;
2396;SDS011;1209;48.410;9.054;2023-07-20T13:00:55;1.73;;;1.63;;
2396;SDS011;1209;48.410;9.054;2023-07-20T13:03:21;1.70;;;1.57;;
2396;SDS011;1209;48.410;9.054;2023-07-20T13:05:46;2.00;;;1.50;;
2396;SDS011;1209;48.410;9.054;2023-07-20T13:08:12;2.43;;;1.67;;
2396;SDS011;1209;48.410;9.054;2023-07-20T13:10:37;1.60;;;1.50;;
2396;SDS011;1209;48.410;9.054;2023-07-20T13:13:03;4.10;;;2.00;;
2396;SDS011;1209;48.410;9.054;2023-07-20T13:15:29;1.63;;;1.53;;
2396;SDS011;1209;48.410;9.054;2023-07-20T13:17:59;3.33;;;1.83;;
2396;SDS011;1209;48.410;9.054;2023-07-20T13:20:25;1.77;;;1.60;;
2396;SDS011;1209;48.410;9.054;2023-07-20T13:22:51;1.80;;;1.70;;
2396;SDS011;1209;48.410;9.054;2023-07-20T13:25:17;2.90;;;2.10;;
2396;SDS011;1209;48.410;9.054;2023-07-20T13:27:42;1.50;;;1.30;;
2396;SDS011;1209;48.410;9.054;2023-07-20T13:30:07;1.73;;;1.63;;
2396;SDS011;1209;48.410;9.054;2023-07-20T13:32:34;1.63;;;1.53;;
2396;SDS011;1209;48.410;9.054;2023-07-20T13:35:01;2.73;;;1.70;;
2396;SDS011;1209;48.410;9.054;2023-07-20T13:37:26;2.30;;;1.57;;
2396;SDS011;1209;48.410;9.054;2023-07-20T13:39:52;2.20;;;2.10;;
2396;SDS011;1209;48.410;9.054;2023-07-20T13:42:17;2.57;;;1.60;;
2396;SDS011;1209;48.410;9.054;2023-07-20T13:44:43;2.27;;;2.07;;
2396;SDS011;1209;48.410;9.054;2023-07-20T13:47:08;2.03;;;1.80;;
2396;SDS011;1209;48.410;9.054;2023-07-20T13:49:33;1.35;;;1.30;;
2396;SDS011;1209;48.410;9.054;2023-07-20T13:51:59;1.67;;;1.57;;
2396;SDS011;1209;48.410;9.054;2023-07-20T13:54:24;4.47;;;1.50;;
2396;SDS011;1209;48.410;9.054;2023-07-20T13:56:50;1.63;;;1.53;;
2396;SDS011;1209;48.410;9.054;2023-07-20T13:59:16;1.60;;;1.50;;
2396;SDS011;1209;48.410;9.054;2023-07-20T14:01:42;1.50;;;1.40;;
2396;SDS011;1209;48.410;9.054;2023-07-20T14:04:08;2.17;;;1.83;;
2396;SDS011;1209;48.410;9.054;2023-07-20T14:06:34;1.60;;;1.43;;
2396;SDS011;1209;48.410;9.054;2023-07-20T14:09:00;3.00;;;1.60;;
2396;SDS011;1209;48.410;9.054;2023-07-20T14:11:27;2.03;;;1.83;;
2396;SDS011;1209;48.410;9.054;2023-07-20T14:13:52;1.97;;;1.57;;
2396;SDS011;1209;48.410;9.054;2023-07-20T14:16:19;1.90;;;1.70;;
2396;SDS011;1209;48.410;9.054;2023-07-20T14:18:45;1.63;;;1.50;;
2396;SDS011;1209;48.410;9.054;2023-07-20T14:21:12;2.40;;;1.70;;
2396;SDS011;1209;48.410;9.054;2023-07-20T14:23:38;1.47;;;1.37;;
2396;SDS011;1209;48.410;9.054;2023-07-20T14:26:03;1.70;;;1.60;;
2396;SDS011;1209;48.410;9.054;2023-07-20T14:28:30;2.20;;;2.00;;
2396;SDS011;1209;48.410;9.054;2023-07-20T14:30:56;3.20;;;1.80;;
2396;SDS011;1209;48.410;9.054;2023-07-20T14:33:22;7.10;;;2.03;;
2396;SDS011;1209;48.410;9.054;2023-07-20T14:35:47;1.50;;;1.40;;
2396;SDS011;1209;48.410;9.054;2023-07-20T14:38:12;2.07;;;1.77;;
2396;SDS011;1209;48.410;9.054;2023-07-20T14:40:38;1.70;;;1.60;;
2396;SDS011;1209;48.410;9.054;2023-07-20T14:43:03;1.73;;;1.63;;
2396;SDS011;1209;48.410;9.054;2023-07-20T14:45:28;1.50;;;1.40;;
2396;SDS011;1209;48.410;9.054;2023-07-20T14:47:54;2.83;;;1.73;;
2396;SDS011;1209;48.410;9.054;2023-07-20T14:50:19;1.60;;;1.50;;
2396;SDS011;1209;48.410;9.054;2023-07-20T14:52:45;2.10;;;1.90;;
2396;SDS011;1209;48.410;9.054;2023-07-20T14:55:10;2.27;;;1.50;;
2396;SDS011;1209;48.410;9.054;2023-07-20T14:57:36;1.37;;;1.27;;
2396;SDS011;1209;48.410;9.054;2023-07-20T15:00:02;2.23;;;1.70;;
2396;SDS011;1209;48.410;9.054;2023-07-20T15:02:35;1.80;;;1.70;;
2396;SDS011;1209;48.410;9.054;2023-07-20T15:05:02;1.83;;;1.67;;
2396;SDS011;1209;48.410;9.054;2023-07-20T15:07:27;1.20;;;1.20;;
2396;SDS011;1209;48.410;9.054;2023-07-20T15:09:53;2.13;;;1.90;;
2396;SDS011;1209;48.410;9.054;2023-07-20T15:12:18;2.80;;;1.93;;
2396;SDS011;1209;48.410;9.054;2023-07-20T15:14:43;1.60;;;1.50;;
2396;SDS011;1209;48.410;9.054;2023-07-20T15:17:09;2.73;;;1.60;;
2396;SDS011;1209;48.410;9.054;2023-07-20T15:19:35;2.43;;;1.70;;
2396;SDS011;1209;48.410;9.054;2023-07-20T15:22:01;1.50;;;1.40;;
2396;SDS011;1209;48.410;9.054;2023-07-20T15:24:30;1.47;;;1.37;;
2396;SDS011;1209;48.410;9.054;2023-07-20T15:26:55;1.80;;;1.70;;